sensor_id;sensor_type;location;lat;lon;timestamp;P1;P2;P0
64570;PMS5003;61095;52.454;16.948;2023-07-31T06:00:55;4.00;3.00;2.00
64570;PMS5003;61095;52.454;16.948;2023-07-31T06:05:55;4.00;3.00;2.00
64570;PMS5003;61095;52.454;16.948;2023-07-31T06:10:56;3.33;3.33;1.00
64570;PMS5003;61095;52.454;16.948;2023-07-31T06:15:58;4.00;4.00;1.67
64570;PMS5003;61095;52.454;16.948;2023-07-31T06:20:58;4.00;4.00;1.00
64570;PMS5003;61095;52.454;16.948;2023-07-31T06:25:58;3.67;3.67;2.00
64570;PMS5003;61095;52.454;16.948;2023-07-31T06:31:00;4.00;4.00;1.00
64570;PMS5003;61095;52.454;16.948;2023-07-31T06:36:01;3.67;3.67;1.00
64570;PMS5003;61095;52.454;16.948;2023-07-31T06:41:01;2.00;2.00;1.00
64570;PMS5003;61095;52.454;16.948;2023-07-31T06:46:05;2.00;2.00;1.00
64570;PMS5003;61095;52.454;16.948;2023-07-31T06:51:06;2.00;2.00;0.33
64570;PMS5003;61095;52.454;16.948;2023-07-31T06:56:06;3.00;3.00;0.00
64570;PMS5003;61095;52.454;16.948;2023-07-31T07:01:08;3.33;2.00;0.00
64570;PMS5003;61095;52.454;16.948;2023-07-31T07:06:08;3.00;3.00;0.00
64570;PMS5003;61095;52.454;16.948;2023-07-31T07:11:08;3.67;3.67;0.00
64570;PMS5003;61095;52.454;16.948;2023-07-31T07:16:10;3.00;3.00;0.33
64570;PMS5003;61095;52.454;16.948;2023-07-31T07:21:10;4.00;4.00;1.00
64570;PMS5003;61095;52.454;16.948;2023-07-31T07:26:11;2.00;2.00;0.00
64570;PMS5003;61095;52.454;16.948;2023-07-31T07:31:12;3.00;3.00;0.00
64570;PMS5003;61095;52.454;16.948;2023-07-31T07:36:13;3.00;3.00;0.00
64570;PMS5003;61095;52.454;16.948;2023-07-31T07:41:13;2.00;2.00;0.00
64570;PMS5003;61095;52.454;16.948;2023-07-31T07:46:15;2.00;2.00;0.00
64570;PMS5003;61095;52.454;16.948;2023-07-31T07:51:15;3.00;2.33;0.00
64570;PMS5003;61095;52.454;16.948;2023-07-31T07:56:16;1.67;1.67;0.00
64570;PMS5003;61095;52.454;16.948;2023-07-31T08:01:17;0.00;0.00;0.00
64570;PMS5003;61095;52.454;16.948;2023-07-31T08:06:18;1.00;0.00;0.00
64570;PMS5003;61095;52.454;16.948;2023-07-31T08:11:18;0.00;0.00;0.00
64570;PMS5003;61095;52.454;16.948;2023-07-31T08:16:20;1.00;0.00;0.00
64570;PMS5003;61095;52.454;16.948;2023-07-31T08:21:21;1.33;1.33;0.00
64570;PMS5003;61095;52.454;16.948;2023-07-31T08:26:21;0.00;0.00;0.00
64570;PMS5003;61095;52.454;16.948;2023-07-31T08:31:23;2.67;2.67;0.00
64570;PMS5003;61095;52.454;16.948;2023-07-31T08:36:23;4.00;4.00;0.00
64570;PMS5003;61095;52.454;16.948;2023-07-31T08:41:24;4.00;4.00;0.00
64570;PMS5003;61095;52.454;16.948;2023-07-31T08:46:25;2.00;2.00;0.00
64570;PMS5003;61095;52.454;16.948;2023-07-31T08:51:26;3.67;3.67;0.00
64570;PMS5003;61095;52.454;16.948;2023-07-31T08:56:27;2.00;2.00;0.00
64570;PMS5003;61095;52.454;16.948;2023-07-31T09:01:30;2.00;2.00;0.00
64570;PMS5003;61095;52.454;16.948;2023-07-31T09:06:35;3.67;3.67;0.00
64570;PMS5003;61095;52.454;16.948;2023-07-31T09:11:37;3.00;3.00;0.00
64570;PMS5003;61095;52.454;16.948;2023-07-31T09:16:52;1.00;1.00;0.00
64570;PMS5003;61095;52.454;16.948;2023-07-31T09:21:53;2.00;2.00;0.00
64570;PMS5003;61095;52.454;16.948;2023-07-31T09:26:54;1.67;1.00;0.00
64570;PMS5003;61095;52.454;16.948;2023-07-31T09:31:56;2.00;1.00;0.00
64570;PMS5003;61095;52.454;16.948;2023-07-31T09:36:57;1.00;1.00;0.00
64570;PMS5003;61095;52.454;16.948;2023-07-31T09:42:01;2.00;1.00;0.00
64570;PMS5003;61095;52.454;16.948;2023-07-31T09:47:02;1.00;1.00;0.00
64570;PMS5003;61095;52.454;16.948;2023-07-31T09:52:03;2.67;2.00;0.00
64570;PMS5003;61095;52.454;16.948;2023-07-31T09:57:11;2.00;2.00;0.00
64570;PMS5003;61095;52.454;16.948;2023-07-31T10:02:14;2.00;2.00;0.00
64570;PMS5003;61095;52.454;16.948;2023-07-31T10:07:20;2.33;1.00;0.00
64570;PMS5003;61095;52.454;16.948;2023-07-31T10:12:25;1.00;0.00;0.00
64570;PMS5003;61095;52.454;16.948;2023-07-31T10:17:28;3.00;2.00;0.00
64570;PMS5003;61095;52.454;16.948;2023-07-31T10:22:29;3.33;3.33;0.00
64570;PMS5003;61095;52.454;16.948;2023-07-31T10:27:30;4.00;4.00;0.00
64570;PMS5003;61095;52.454;16.948;2023-07-31T10:32:32;2.00;1.00;0.00
64570;PMS5003;61095;52.454;16.948;2023-07-31T10:37:35;3.00;2.00;0.00
64570;PMS5003;61095;52.454;16.948;2023-07-31T10:42:38;3.00;2.00;0.00
64570;PMS5003;61095;52.454;16.948;2023-07-31T10:47:47;3.33;3.00;0.00
64570;PMS5003;61095;52.454;16.948;2023-07-31T10:52:47;3.33;3.00;0.00
64570;PMS5003;61095;52.454;16.948;2023-07-31T10:57:49;3.00;3.00;0.00
64570;PMS5003;61095;52.454;16.948;2023-07-31T11:02:57;3.00;3.00;0.00
64570;PMS5003;61095;52.454;16.948;2023-07-31T11:08:07;2.00;2.00;0.00
64570;PMS5003;61095;52.454;16.948;2023-07-31T11:13:10;3.00;3.00;0.67
64570;PMS5003;61095;52.454;16.948;2023-07-31T11:18:12;3.33;3.33;0.00
64570;PMS5003;61095;52.454;16.948;2023-07-31T11:23:16;2.33;2.33;0.00
64570;PMS5003;61095;52.454;16.948;2023-07-31T11:28:18;2.33;2.33;0.00
64570;PMS5003;61095;52.454;16.948;2023-07-31T11:33:20;1.00;1.00;0.00
64570;PMS5003;61095;52.454;16.948;2023-07-31T11:38:21;2.67;2.67;1.00
64570;PMS5003;61095;52.454;16.948;2023-07-31T11:43:22;2.00;2.00;0.00
64570;PMS5003;61095;52.454;16.948;2023-07-31T11:48:25;3.00;2.00;0.00
64570;PMS5003;61095;52.454;16.948;2023-07-31T11:53:26;2.00;2.00;0.00
64570;PMS5003;61095;52.454;16.948;2023-07-31T11:58:31;1.00;0.67;0.00
64570;PMS5003;61095;52.454;16.948;2023-07-31T12:03:35;2.00;2.00;0.00
64570;PMS5003;61095;52.454;16.948;2023-07-31T12:08:36;2.33;2.33;0.00
64570;PMS5003;61095;52.454;16.948;2023-07-31T12:13:37;2.00;2.00;0.00
64570;PMS5003;61095;52.454;16.948;2023-07-31T12:18:38;2.33;2.33;0.00
64570;PMS5003;61095;52.454;16.948;2023-07-31T12:23:39;2.00;2.00;0.00
64570;PMS5003;61095;52.454;16.948;2023-07-31T12:28:40;4.00;4.00;0.00
64570;PMS5003;61095;52.454;16.948;2023-07-31T12:33:43;4.00;3.00;0.00
64570;PMS5003;61095;52.454;16.948;2023-07-31T12:38:44;2.67;2.67;0.33
64570;PMS5003;61095;52.454;16.948;2023-07-31T12:43:45;4.00;4.00;1.00
64570;PMS5003;61095;52.454;16.948;2023-07-31T12:48:47;4.00;4.00;1.00
64570;PMS5003;61095;52.454;16.948;2023-07-31T12:53:47;4.00;4.00;1.00
64570;PMS5003;61095;52.454;16.948;2023-07-31T12:58:48;4.00;4.00;1.00
64570;PMS5003;61095;52.454;16.948;2023-07-31T13:03:49;3.00;3.00;1.67
64570;PMS5003;61095;52.454;16.948;2023-07-31T13:08:50;3.33;3.33;1.00
64570;PMS5003;61095;52.454;16.948;2023-07-31T13:13:50;4.00;3.33;1.00
64570;PMS5003;61095;52.454;16.948;2023-07-31T13:18:52;5.33;5.00;2.00
64570;PMS5003;61095;52.454;16.948;2023-07-31T13:23:52;3.00;3.00;1.00
64570;PMS5003;61095;52.454;16.948;2023-07-31T13:28:52;3.00;3.00;0.00
64570;PMS5003;61095;52.454;16.948;2023-07-31T13:33:54;4.00;4.00;0.67
64570;PMS5003;61095;52.454;16.948;2023-07-31T13:38:54;2.67;2.67;1.00
64570;PMS5003;61095;52.454;16.948;2023-07-31T13:43:55;3.00;3.00;1.00
64570;PMS5003;61095;52.454;16.948;2023-07-31T13:48:56;5.00;5.00;1.00
64570;PMS5003;61095;52.454;16.948;2023-07-31T13:53:57;5.00;5.00;1.00
64570;PMS5003;61095;52.454;16.948;2023-07-31T13:58:57;6.00;5.00;1.00
64570;PMS5003;61095;52.454;16.948;2023-07-31T14:03:59;6.00;6.00;2.00
64570;PMS5003;61095;52.454;16.948;2023-07-31T14:08:59;4.00;4.00;2.00
64570;PMS5003;61095;52.454;16.948;2023-07-31T14:14:03;3.67;3.67;2.00
64570;PMS5003;61095;52.454;16.948;2023-07-31T14:19:05;5.67;5.67;2.67
64570;PMS5003;61095;52.454;16.948;2023-07-31T14:24:05;4.00;4.00;2.00
64570;PMS5003;61095;52.454;16.948;2023-07-31T14:29:05;4.00;4.00;0.00
64570;PMS5003;61095;52.454;16.948;2023-07-31T14:34:07;2.00;2.00;0.00
64570;PMS5003;61095;52.454;16.948;2023-07-31T14:39:07;4.00;4.00;2.00
64570;PMS5003;61095;52.454;16.948;2023-07-31T14:44:08;4.00;4.00;2.00
64570;PMS5003;61095;52.454;16.948;2023-07-31T14:49:09;4.33;4.33;1.00
64570;PMS5003;61095;52.454;16.948;2023-07-31T14:54:10;5.00;3.00;1.00
64570;PMS5003;61095;52.454;16.948;2023-07-31T14:59:10;6.00;6.00;2.00
64570;PMS5003;61095;52.454;16.948;2023-07-31T15:04:12;4.67;4.00;0.00
64570;PMS5003;61095;52.454;16.948;2023-07-31T15:09:12;2.00;2.00;0.00
64570;PMS5003;61095;52.454;16.948;2023-07-31T15:14:12;3.00;3.00;1.00
64570;PMS5003;61095;52.454;16.948;2023-07-31T15:19:14;3.00;3.00;1.00
64570;PMS5003;61095;52.454;16.948;2023-07-31T15:24:15;2.00;2.00;1.00
64570;PMS5003;61095;52.454;16.948;2023-07-31T15:29:16;2.00;2.00;0.00
64570;PMS5003;61095;52.454;16.948;2023-07-31T15:34:17;1.67;1.00;0.00
64570;PMS5003;61095;52.454;16.948;2023-07-31T15:39:18;3.00;2.00;0.00
64570;PMS5003;61095;52.454;16.948;2023-07-31T15:44:18;1.00;1.00;0.00
64570;PMS5003;61095;52.454;16.948;2023-07-31T15:49:20;2.00;2.00;0.00
64570;PMS5003;61095;52.454;16.948;2023-07-31T15:54:20;1.00;1.00;0.00
64570;PMS5003;61095;52.454;16.948;2023-07-31T15:59:21;1.00;1.00;0.00
64570;PMS5003;61095;52.454;16.948;2023-07-31T16:04:22;2.00;2.00;0.00
64570;PMS5003;61095;52.454;16.948;2023-07-31T16:09:23;2.00;2.00;0.00
64570;PMS5003;61095;52.454;16.948;2023-07-31T16:14:23;2.00;2.00;0.00
64570;PMS5003;61095;52.454;16.948;2023-07-31T16:19:25;2.00;1.67;0.00
64570;PMS5003;61095;52.454;16.948;2023-07-31T16:24:25;1.00;1.00;0.00
64570;PMS5003;61095;52.454;16.948;2023-07-31T16:29:26;1.00;1.00;0.00
64570;PMS5003;61095;52.454;16.948;2023-07-31T16:34:28;1.00;1.00;0.00
64570;PMS5003;61095;52.454;16.948;2023-07-31T16:39:28;3.00;2.00;0.00
64570;PMS5003;61095;52.454;16.948;2023-07-31T16:44:28;0.00;0.00;0.00
64570;PMS5003;61095;52.454;16.948;2023-07-31T16:49:30;0.00;0.00;0.00
64570;PMS5003;61095;52.454;16.948;2023-07-31T16:54:31;0.00;0.00;0.00
64570;PMS5003;61095;52.454;16.948;2023-07-31T16:59:31;0.00;0.00;0.00
64570;PMS5003;61095;52.454;16.948;2023-07-31T17:04:33;0.00;0.00;0.00
64570;PMS5003;61095;52.454;16.948;2023-07-31T17:09:33;0.00;0.00;0.00
64570;PMS5003;61095;52.454;16.948;2023-07-31T17:14:33;0.00;0.00;0.00
64570;PMS5003;61095;52.454;16.948;2023-07-31T17:19:35;0.00;0.00;0.00
64570;PMS5003;61095;52.454;16.948;2023-07-31T17:24:35;0.00;0.00;0.00
64570;PMS5003;61095;52.454;16.948;2023-07-31T17:29:36;1.00;0.00;0.00
64570;PMS5003;61095;52.454;16.948;2023-07-31T17:34:38;1.67;1.00;0.00
64570;PMS5003;61095;52.454;16.948;2023-07-31T17:39:38;1.00;1.00;0.00
64570;PMS5003;61095;52.454;16.948;2023-07-31T17:44:39;0.00;0.00;0.00
64570;PMS5003;61095;52.454;16.948;2023-07-31T17:49:40;1.00;1.00;0.00
64570;PMS5003;61095;52.454;16.948;2023-07-31T17:54:41;1.67;1.67;0.00
64570;PMS5003;61095;52.454;16.948;2023-07-31T17:59:41;2.67;2.00;0.00
64570;PMS5003;61095;52.454;16.948;2023-07-31T18:04:43;1.67;1.00;0.00
64570;PMS5003;61095;52.454;16.948;2023-07-31T18:09:44;2.00;1.33;0.00
64570;PMS5003;61095;52.454;16.948;2023-07-31T18:14:44;2.67;2.67;0.00
64570;PMS5003;61095;52.454;16.948;2023-07-31T18:19:46;1.00;1.00;0.00
64570;PMS5003;61095;52.454;16.948;2023-07-31T18:24:46;3.00;2.00;0.00
64570;PMS5003;61095;52.454;16.948;2023-07-31T18:29:46;0.00;0.00;0.00
64570;PMS5003;61095;52.454;16.948;2023-07-31T18:34:48;1.00;1.00;0.00
64570;PMS5003;61095;52.454;16.948;2023-07-31T18:39:48;0.00;0.00;0.00
64570;PMS5003;61095;52.454;16.948;2023-07-31T18:44:49;0.67;0.67;0.00
64570;PMS5003;61095;52.454;16.948;2023-07-31T18:49:50;0.00;0.00;0.00
64570;PMS5003;61095;52.454;16.948;2023-07-31T18:54:51;3.00;2.33;0.00
64570;PMS5003;61095;52.454;16.948;2023-07-31T18:59:51;1.00;1.00;0.00
64570;PMS5003;61095;52.454;16.948;2023-07-31T19:04:53;2.00;2.00;0.00
64570;PMS5003;61095;52.454;16.948;2023-07-31T19:09:53;4.00;3.00;0.00
64570;PMS5003;61095;52.454;16.948;2023-07-31T19:14:54;2.00;2.00;0.00
64570;PMS5003;61095;52.454;16.948;2023-07-31T19:19:56;1.00;1.00;0.00
64570;PMS5003;61095;52.454;16.948;2023-07-31T19:24:56;1.00;1.00;0.00
64570;PMS5003;61095;52.454;16.948;2023-07-31T19:29:56;2.00;2.00;0.00
64570;PMS5003;61095;52.454;16.948;2023-07-31T19:34:58;3.00;2.00;0.00
64570;PMS5003;61095;52.454;16.948;2023-07-31T19:39:58;2.00;2.00;0.00
64570;PMS5003;61095;52.454;16.948;2023-07-31T19:44:59;2.00;2.00;0.00
64570;PMS5003;61095;52.454;16.948;2023-07-31T19:50:00;2.00;2.00;0.00
64570;PMS5003;61095;52.454;16.948;2023-07-31T19:55:01;3.00;3.00;0.00
64570;PMS5003;61095;52.454;16.948;2023-07-31T20:00:01;3.67;3.67;0.00
64570;PMS5003;61095;52.454;16.948;2023-07-31T20:05:04;3.00;3.00;0.00
64570;PMS5003;61095;52.454;16.948;2023-07-31T20:10:05;3.00;2.00;0.00
64570;PMS5003;61095;52.454;16.948;2023-07-31T20:15:17;2.00;1.00;0.00
64570;PMS5003;61095;52.454;16.948;2023-07-31T20:20:19;2.33;1.00;0.00
64570;PMS5003;61095;52.454;16.948;2023-07-31T20:25:19;3.00;3.00;0.00
64570;PMS5003;61095;52.454;16.948;2023-07-31T20:30:20;3.00;3.00;0.00
64570;PMS5003;61095;52.454;16.948;2023-07-31T20:35:22;0.67;0.00;0.00
64570;PMS5003;61095;52.454;16.948;2023-07-31T20:40:23;2.00;2.00;0.00
64570;PMS5003;61095;52.454;16.948;2023-07-31T20:45:25;2.67;2.67;0.67
64570;PMS5003;61095;52.454;16.948;2023-07-31T20:50:28;2.00;2.00;0.00
64570;PMS5003;61095;52.454;16.948;2023-07-31T20:55:28;2.00;2.00;0.00
64570;PMS5003;61095;52.454;16.948;2023-07-31T21:00:32;3.00;3.00;0.00
64570;PMS5003;61095;52.454;16.948;2023-07-31T21:05:33;2.00;2.00;0.00
64570;PMS5003;61095;52.454;16.948;2023-07-31T21:10:37;2.00;1.33;0.00
64570;PMS5003;61095;52.454;16.948;2023-07-31T21:15:41;1.00;1.00;0.00
64570;PMS5003;61095;52.454;16.948;2023-07-31T21:20:47;2.67;2.67;0.00
64570;PMS5003;61095;52.454;16.948;2023-07-31T21:25:47;2.00;2.00;0.00
64570;PMS5003;61095;52.454;16.948;2023-07-31T21:30:48;0.67;0.67;0.00
64570;PMS5003;61095;52.454;16.948;2023-07-31T21:35:49;1.67;1.67;1.67
64570;PMS5003;61095;52.454;16.948;2023-07-31T21:40:50;1.67;1.67;0.00
64570;PMS5003;61095;52.454;16.948;2023-07-31T21:45:50;3.33;3.00;0.00
64570;PMS5003;61095;52.454;16.948;2023-07-31T21:50:52;2.00;2.00;0.00
64570;PMS5003;61095;52.454;16.948;2023-07-31T21:55:52;2.00;2.00;0.00
